createdAt,value
2022-12-28T00:01:27.670Z,35.83
2022-12-28T00:03:56.123Z,30.00
2022-12-28T00:06:24.609Z,23.37
2022-12-28T00:08:58.147Z,26.05
2022-12-28T00:11:30.984Z,32.87
2022-12-28T00:14:01.051Z,35.83
2022-12-28T00:16:34.738Z,28.40
2022-12-28T00:19:04.887Z,26.23
2022-12-28T00:21:32.567Z,27.10
2022-12-28T00:24:01.295Z,26.30
2022-12-28T00:26:31.183Z,28.98
2022-12-28T00:29:04.784Z,25.77
2022-12-28T00:31:34.077Z,26.47
2022-12-28T00:34:03.316Z,25.02
2022-12-28T00:37:09.634Z,23.95
2022-12-28T00:39:22.157Z,24.65
2022-12-28T00:41:49.662Z,24.07
2022-12-28T00:44:17.040Z,25.70
2022-12-28T00:46:44.735Z,23.60
2022-12-28T00:49:11.989Z,23.80
2022-12-28T00:51:39.409Z,24.43
2022-12-28T00:54:07.020Z,26.60
2022-12-28T00:56:34.352Z,24.80
2022-12-28T00:59:01.704Z,23.60
2022-12-28T01:01:29.550Z,23.00
2022-12-28T01:03:58.895Z,24.12
2022-12-28T01:06:27.790Z,21.53
2022-12-28T01:08:55.991Z,21.08
2022-12-28T01:11:27.540Z,23.67
2022-12-28T01:13:59.179Z,22.37
2022-12-28T01:16:32.402Z,19.63
2022-12-28T01:19:02.382Z,17.57
2022-12-28T01:21:31.518Z,19.93
2022-12-28T01:24:01.309Z,15.98
2022-12-28T01:26:29.997Z,12.70
2022-12-28T01:28:58.823Z,11.50
2022-12-28T01:31:26.494Z,11.50
2022-12-28T01:33:54.339Z,10.70
2022-12-28T01:36:29.325Z,9.70
2022-12-28T01:38:59.713Z,8.63
2022-12-28T01:41:29.139Z,9.17
2022-12-28T01:43:56.720Z,8.37
2022-12-28T01:46:38.086Z,9.53
2022-12-28T01:49:17.140Z,8.63
2022-12-28T01:51:46.465Z,9.43
2022-12-28T01:54:15.132Z,8.50
2022-12-28T01:56:44.461Z,8.07
2022-12-28T02:01:40.587Z,7.70
2022-12-28T02:04:08.175Z,9.67
2022-12-28T02:06:35.540Z,9.03
2022-12-28T02:09:39.962Z,9.53
2022-12-28T02:12:10.929Z,9.07
2022-12-28T02:14:41.556Z,9.30
2022-12-28T02:17:10.235Z,9.15
2022-12-28T02:19:46.780Z,8.98
2022-12-28T02:22:57.374Z,8.27
2022-12-28T02:25:43.459Z,8.10
2022-12-28T02:28:59.983Z,7.93
2022-12-28T02:31:57.201Z,8.07
2022-12-28T02:34:36.009Z,8.33
2022-12-28T02:37:11.624Z,8.20
2022-12-28T02:39:44.571Z,7.27
2022-12-28T02:42:14.021Z,9.87
2022-12-28T02:45:00.438Z,8.00
2022-12-28T02:47:46.333Z,8.37
2022-12-28T02:50:16.354Z,7.77
2022-12-28T02:52:55.813Z,7.40
2022-12-28T02:56:07.439Z,8.33
2022-12-28T02:58:37.588Z,7.77
2022-12-28T03:01:38.067Z,8.73
2022-12-28T03:04:31.303Z,8.20
2022-12-28T03:07:24.541Z,7.97
2022-12-28T03:10:05.720Z,7.43
2022-12-28T03:12:57.883Z,7.60
2022-12-28T03:15:30.279Z,10.83
2022-12-28T03:18:20.820Z,10.97
2022-12-28T03:21:09.111Z,9.90
2022-12-28T03:24:00.049Z,11.43
2022-12-28T03:26:51.133Z,9.47
2022-12-28T03:29:41.832Z,8.87
2022-12-28T03:32:09.975Z,8.90
2022-12-28T03:34:38.467Z,8.00
2022-12-28T03:37:26.139Z,7.67
2022-12-28T03:40:03.029Z,7.97
2022-12-28T03:42:53.734Z,7.20
2022-12-28T03:45:44.844Z,6.97
2022-12-28T03:48:16.513Z,7.10
2022-12-28T03:50:49.272Z,8.57
2022-12-28T03:53:21.516Z,8.50
2022-12-28T03:55:49.920Z,7.83
2022-12-28T03:58:18.365Z,21.45
2022-12-28T04:00:45.733Z,17.83
2022-12-28T04:03:13.876Z,28.40
2022-12-28T04:05:41.190Z,22.17
2022-12-28T04:08:08.464Z,11.50
2022-12-28T04:10:36.376Z,10.00
2022-12-28T04:13:04.328Z,10.33
2022-12-28T04:15:34.462Z,11.03
2022-12-28T04:18:02.387Z,8.97
2022-12-28T04:20:29.754Z,10.10
2022-12-28T04:22:57.124Z,14.93
2022-12-28T04:25:24.967Z,13.80
2022-12-28T04:27:53.896Z,41.05
2022-12-28T04:30:23.588Z,46.00
2022-12-28T04:32:51.201Z,35.37
2022-12-28T04:35:18.576Z,26.57
2022-12-28T04:37:46.000Z,20.00
2022-12-28T04:40:13.745Z,41.20
2022-12-28T04:42:41.039Z,40.30
2022-12-28T04:45:09.109Z,31.70
2022-12-28T04:47:36.662Z,17.92
2022-12-28T04:50:04.168Z,26.77
2022-12-28T04:52:31.377Z,30.13
2022-12-28T04:54:59.121Z,27.50
2022-12-28T04:57:26.502Z,25.63
2022-12-28T04:59:53.717Z,20.27
2022-12-28T05:02:21.463Z,12.67
2022-12-28T05:04:49.509Z,10.37
2022-12-28T05:07:17.120Z,10.23
2022-12-28T05:09:44.768Z,16.20
2022-12-28T05:12:12.276Z,12.30
2022-12-28T05:14:39.836Z,11.30
2022-12-28T05:17:07.814Z,9.63
2022-12-28T05:19:35.118Z,9.03
2022-12-28T05:22:03.662Z,8.47
2022-12-28T05:24:31.853Z,9.05
2022-12-28T05:26:59.146Z,9.43
2022-12-28T05:29:26.466Z,10.23
2022-12-28T05:31:54.248Z,9.30
2022-12-28T05:34:21.632Z,8.93
2022-12-28T05:36:49.006Z,8.33
2022-12-28T05:39:16.840Z,9.00
2022-12-28T05:41:44.431Z,8.00
2022-12-28T05:44:12.039Z,8.40
2022-12-28T05:46:39.797Z,8.33
2022-12-28T05:49:11.120Z,9.37
2022-12-28T05:51:39.929Z,8.83
2022-12-28T05:54:08.002Z,11.10
2022-12-28T05:56:36.729Z,13.27
2022-12-28T05:59:06.146Z,17.23
2022-12-28T06:01:36.489Z,13.53
2022-12-28T06:04:09.219Z,19.27
2022-12-28T06:06:36.764Z,17.97
2022-12-28T06:09:05.116Z,24.47
2022-12-28T06:11:33.057Z,25.80
2022-12-28T06:14:01.360Z,39.03
2022-12-28T06:16:31.521Z,42.43
2022-12-28T06:18:59.573Z,30.30
2022-12-28T06:21:29.617Z,26.70
2022-12-28T06:23:59.185Z,29.03
2022-12-28T06:28:55.071Z,26.83
2022-12-28T06:31:25.526Z,27.37
2022-12-28T06:33:57.379Z,23.53
2022-12-28T06:36:30.936Z,22.23
2022-12-28T06:39:00.106Z,23.93
2022-12-28T06:41:29.098Z,18.77
2022-12-28T06:43:57.454Z,16.15
2022-12-28T06:46:30.817Z,18.15
2022-12-28T06:49:01.210Z,20.57
2022-12-28T06:51:31.279Z,37.70
2022-12-28T06:53:58.927Z,36.33
2022-12-28T06:56:31.768Z,55.13
2022-12-28T06:59:03.395Z,60.03
2022-12-28T07:01:37.352Z,61.13
2022-12-28T07:04:06.801Z,63.53
2022-12-28T07:06:42.318Z,54.35
2022-12-28T07:09:15.180Z,54.53
2022-12-28T07:11:44.274Z,38.13
2022-12-28T07:14:12.221Z,28.93
2022-12-28T07:19:07.929Z,33.23
2022-12-28T07:21:39.790Z,65.63
2022-12-28T07:24:07.951Z,52.77
2022-12-28T07:26:37.739Z,46.28
2022-12-28T07:29:06.985Z,48.27
2022-12-28T07:31:41.924Z,44.25
2022-12-28T07:34:14.657Z,42.20
2022-12-28T07:36:42.238Z,44.60
2022-12-28T07:39:10.687Z,40.00
2022-12-28T07:41:38.544Z,29.48
2022-12-28T07:44:06.683Z,16.93
2022-12-28T07:46:35.488Z,15.40
2022-12-28T07:49:03.836Z,15.45
2022-12-28T07:51:32.791Z,15.30
2022-12-28T07:54:01.081Z,12.70
2022-12-28T07:56:30.042Z,11.82
2022-12-28T07:58:59.918Z,12.68
2022-12-28T08:01:30.247Z,12.10
2022-12-28T08:04:03.767Z,23.83
2022-12-28T08:06:34.939Z,50.20
2022-12-28T08:09:03.139Z,56.20
2022-12-28T08:11:34.118Z,47.13
2022-12-28T08:14:02.245Z,47.60
2022-12-28T08:16:33.778Z,36.05
2022-12-28T08:19:01.263Z,30.43
2022-12-28T08:21:37.998Z,30.03
2022-12-28T08:24:06.630Z,15.23
2022-12-28T08:26:39.084Z,10.25
2022-12-28T08:29:09.712Z,9.13
2022-12-28T08:31:40.404Z,8.63
2022-12-28T08:34:11.433Z,10.23
2022-12-28T08:36:38.768Z,25.20
2022-12-28T08:39:06.363Z,23.50
2022-12-28T08:41:34.109Z,20.97
2022-12-28T08:44:01.662Z,31.10
2022-12-28T08:46:33.089Z,28.10
2022-12-28T08:49:01.959Z,25.50
2022-12-28T08:51:41.894Z,25.90
2022-12-28T08:54:11.473Z,25.93
2022-12-28T08:56:40.734Z,25.88
2022-12-28T09:01:44.116Z,25.47
2022-12-28T09:04:17.811Z,27.60
2022-12-28T09:06:46.197Z,28.17
2022-12-28T09:09:15.792Z,31.50
2022-12-28T09:11:44.387Z,31.40
2022-12-28T09:14:22.169Z,32.90
2022-12-28T09:16:51.097Z,31.62
2022-12-28T09:19:18.906Z,20.30
2022-12-28T09:21:49.330Z,18.17
2022-12-28T09:24:16.965Z,20.03
2022-12-28T09:26:44.955Z,17.60
2022-12-28T09:29:14.241Z,13.27
2022-12-28T09:31:41.962Z,13.23
2022-12-28T09:37:01.052Z,14.40
2022-12-28T09:39:29.347Z,15.10
2022-12-28T09:42:01.063Z,14.93
2022-12-28T09:44:50.735Z,15.30
2022-12-28T09:47:44.709Z,16.30
2022-12-28T09:50:25.165Z,13.00
2022-12-28T09:53:20.883Z,13.40
2022-12-28T09:56:27.594Z,13.50
2022-12-28T09:58:55.548Z,7.70
2022-12-28T10:01:25.145Z,5.05
2022-12-28T10:04:02.423Z,7.77
2022-12-28T10:06:36.878Z,10.80
2022-12-28T10:09:12.485Z,8.77
2022-12-28T10:11:42.770Z,7.83
2022-12-28T10:14:46.554Z,8.83
2022-12-28T10:17:16.442Z,7.83
2022-12-28T10:19:47.988Z,6.17
2022-12-28T10:22:20.864Z,5.90
2022-12-28T10:24:49.149Z,5.50
2022-12-28T10:27:31.633Z,6.90
2022-12-28T10:30:02.626Z,7.30
2022-12-28T10:32:49.946Z,4.90
2022-12-28T10:35:36.234Z,4.13
2022-12-28T10:38:08.271Z,5.23
2022-12-28T10:40:40.216Z,4.93
2022-12-28T10:43:19.358Z,5.00
2022-12-28T10:45:50.704Z,4.10
2022-12-28T10:48:40.183Z,3.87
2022-12-28T10:51:08.015Z,4.10
2022-12-28T10:53:45.218Z,5.20
2022-12-28T10:56:13.211Z,3.40
2022-12-28T10:58:42.830Z,3.13
2022-12-28T11:01:13.318Z,3.63
2022-12-28T11:03:57.300Z,2.67
2022-12-28T11:06:27.903Z,2.90
2022-12-28T11:09:15.800Z,3.40
2022-12-28T11:11:45.514Z,3.17
2022-12-28T11:14:36.758Z,2.60
2022-12-28T11:17:17.946Z,7.70
2022-12-28T11:19:50.211Z,7.03
2022-12-28T11:22:23.626Z,3.23
2022-12-28T11:24:51.542Z,3.83
2022-12-28T11:27:22.054Z,3.47
2022-12-28T11:29:54.400Z,3.37
2022-12-28T11:32:27.394Z,3.80
2022-12-28T11:34:56.652Z,9.27
2022-12-28T11:37:24.610Z,6.33
2022-12-28T11:39:53.288Z,7.67
2022-12-28T11:42:41.496Z,9.68
2022-12-28T11:45:51.460Z,8.40
2022-12-28T11:48:41.283Z,12.47
2022-12-28T11:53:58.582Z,10.97
2022-12-28T11:56:36.878Z,4.63
2022-12-28T11:59:19.695Z,4.60
2022-12-28T12:01:49.360Z,4.97
2022-12-28T12:04:29.719Z,12.40
2022-12-28T12:07:01.682Z,9.73
2022-12-28T12:09:44.321Z,9.40
2022-12-28T12:12:18.232Z,5.10
2022-12-28T12:14:57.696Z,3.27
2022-12-28T12:17:53.027Z,3.10
2022-12-28T12:20:30.855Z,2.53
2022-12-28T12:23:08.454Z,2.57
2022-12-28T12:25:47.237Z,7.27
2022-12-28T12:28:21.360Z,10.55
2022-12-28T12:30:50.768Z,14.83
2022-12-28T12:33:27.654Z,12.27
2022-12-28T12:35:58.448Z,12.63
2022-12-28T12:39:11.152Z,13.50
2022-12-28T12:41:45.358Z,13.43
2022-12-28T12:44:16.108Z,15.27
2022-12-28T12:47:10.328Z,14.47
2022-12-28T12:50:08.836Z,16.57
2022-12-28T12:53:09.914Z,19.45
2022-12-28T12:55:57.473Z,26.73
2022-12-28T12:58:37.134Z,12.20
2022-12-28T13:01:07.500Z,15.33
2022-12-28T13:03:45.694Z,19.57
2022-12-28T13:06:22.929Z,26.17
2022-12-28T13:09:00.418Z,24.23
2022-12-28T13:11:32.792Z,24.73
2022-12-28T13:14:01.950Z,17.77
2022-12-28T13:16:32.729Z,7.43
2022-12-28T13:19:02.871Z,2.37
2022-12-28T13:21:41.848Z,3.70
2022-12-28T13:24:25.027Z,3.47
2022-12-28T13:26:53.782Z,2.40
2022-12-28T13:29:27.184Z,2.10
2022-12-28T13:31:55.507Z,3.03
2022-12-28T13:34:37.823Z,3.73
2022-12-28T13:37:17.420Z,5.00
2022-12-28T13:39:45.016Z,3.90
2022-12-28T13:42:17.540Z,4.20
2022-12-28T13:44:48.697Z,5.30
2022-12-28T13:47:28.460Z,5.37
2022-12-28T13:50:01.639Z,4.10
2022-12-28T13:52:41.424Z,4.60
2022-12-28T13:55:20.292Z,3.70
2022-12-28T14:00:28.635Z,3.40
2022-12-28T14:02:58.840Z,5.63
2022-12-28T14:05:29.946Z,4.50
2022-12-28T14:07:59.339Z,3.93
2022-12-28T14:10:28.207Z,4.97
2022-12-28T14:12:56.567Z,3.90
2022-12-28T14:15:25.587Z,3.95
2022-12-28T14:17:53.406Z,3.87
2022-12-28T14:20:20.797Z,4.10
2022-12-28T14:22:48.797Z,7.87
2022-12-28T14:25:18.457Z,4.20
2022-12-28T14:28:03.888Z,4.23
2022-12-28T14:30:39.313Z,17.23
2022-12-28T14:33:22.338Z,32.27
2022-12-28T14:36:03.395Z,4.50
2022-12-28T14:38:38.792Z,4.07
2022-12-28T14:41:06.935Z,3.83
2022-12-28T14:43:36.334Z,3.97
2022-12-28T14:46:19.156Z,4.33
2022-12-28T14:48:46.971Z,3.60
2022-12-28T14:51:17.858Z,6.87
2022-12-28T14:53:45.652Z,16.17
2022-12-28T14:56:17.826Z,30.60
2022-12-28T14:58:55.242Z,8.37
2022-12-28T15:01:25.697Z,7.77
2022-12-28T15:03:58.466Z,10.67
2022-12-28T15:06:28.862Z,10.20
2022-12-28T15:08:59.104Z,10.37
2022-12-28T15:11:28.673Z,16.27
2022-12-28T15:16:24.430Z,7.83
2022-12-28T15:18:53.221Z,14.13
2022-12-28T15:21:22.944Z,17.45
2022-12-28T15:23:51.211Z,7.40
2022-12-28T15:26:19.235Z,7.05
2022-12-28T15:28:46.565Z,6.57
2022-12-28T15:31:18.023Z,5.40
2022-12-28T15:33:46.043Z,5.33
2022-12-28T15:36:25.101Z,6.17
2022-12-28T15:38:56.489Z,5.13
2022-12-28T15:41:42.443Z,5.00
2022-12-28T15:44:10.153Z,6.00
2022-12-28T15:46:37.625Z,5.80
2022-12-28T15:49:07.061Z,5.73
2022-12-28T15:51:34.764Z,6.30
2022-12-28T15:54:02.233Z,6.43
2022-12-28T15:56:32.347Z,5.50
2022-12-28T15:59:01.493Z,6.63
2022-12-28T16:01:30.679Z,6.40
2022-12-28T16:04:00.954Z,6.23
2022-12-28T16:06:30.996Z,6.77
2022-12-28T16:09:00.543Z,7.63
2022-12-28T16:11:29.929Z,7.40
2022-12-28T16:13:59.764Z,7.57
2022-12-28T16:16:30.921Z,7.73
2022-12-28T16:18:59.024Z,7.53
2022-12-28T16:21:27.488Z,7.20
2022-12-28T16:23:55.484Z,9.03
2022-12-28T16:26:23.410Z,10.50
2022-12-28T16:28:51.620Z,9.70
2022-12-28T16:31:31.301Z,9.10
2022-12-28T16:34:03.270Z,8.33
2022-12-28T16:36:30.925Z,9.07
2022-12-28T16:38:58.734Z,9.63
2022-12-28T16:41:29.931Z,9.60
2022-12-28T16:44:09.437Z,8.77
2022-12-28T16:46:36.816Z,9.00
2022-12-28T16:49:04.544Z,10.57
2022-12-28T16:51:32.161Z,8.03
2022-12-28T16:53:59.660Z,9.67
2022-12-28T16:56:27.415Z,9.77
2022-12-28T16:58:59.306Z,9.33
2022-12-28T17:01:27.372Z,10.27
2022-12-28T17:04:01.724Z,8.70
2022-12-28T17:06:32.036Z,9.77
2022-12-28T17:09:02.252Z,8.73
2022-12-28T17:11:29.554Z,8.43
2022-12-28T17:14:05.756Z,9.73
2022-12-28T17:16:33.485Z,8.47
2022-12-28T17:19:01.399Z,9.30
2022-12-28T17:21:30.028Z,8.33
2022-12-28T17:23:57.994Z,9.65
2022-12-28T17:26:26.763Z,10.83
2022-12-28T17:28:54.239Z,9.85
2022-12-28T17:31:23.703Z,10.27
2022-12-28T17:33:57.890Z,10.40
2022-12-28T17:36:25.703Z,10.10
2022-12-28T17:41:25.557Z,10.50
2022-12-28T17:43:55.198Z,10.43
2022-12-28T17:46:26.185Z,9.83
2022-12-28T17:48:55.237Z,11.60
2022-12-28T17:53:54.703Z,10.23
2022-12-28T17:56:22.257Z,9.87
2022-12-28T17:58:54.981Z,9.83
2022-12-28T18:01:22.539Z,11.37
2022-12-28T18:03:50.700Z,10.83
2022-12-28T18:06:18.104Z,10.30
2022-12-28T18:08:45.693Z,10.50
2022-12-28T18:11:14.781Z,10.93
2022-12-28T18:13:44.138Z,10.65
2022-12-28T18:16:15.305Z,10.88
2022-12-28T18:18:43.324Z,10.20
2022-12-28T18:21:21.128Z,11.60
2022-12-28T18:23:51.305Z,12.20
2022-12-28T18:28:48.036Z,13.80
2022-12-28T18:31:16.077Z,12.00
2022-12-28T18:33:43.741Z,11.77
2022-12-28T18:36:17.442Z,13.37
2022-12-28T18:38:47.875Z,13.90
2022-12-28T18:41:18.378Z,11.40
2022-12-28T18:43:46.204Z,13.17
2022-12-28T18:46:14.168Z,11.83
2022-12-28T18:48:42.002Z,13.47
2022-12-28T18:51:15.845Z,12.00
2022-12-28T18:53:43.474Z,12.87
2022-12-28T18:56:16.871Z,12.63
2022-12-28T18:58:44.732Z,13.10
2022-12-28T19:01:40.056Z,14.13
2022-12-28T19:04:09.391Z,14.57
2022-12-28T19:06:38.236Z,13.17
2022-12-28T19:09:06.479Z,13.20
2022-12-28T19:11:34.350Z,13.93
2022-12-28T19:14:07.633Z,14.07
2022-12-28T19:16:35.365Z,13.50
2022-12-28T19:19:03.361Z,13.93
2022-12-28T19:21:44.276Z,13.50
2022-12-28T19:24:15.599Z,15.20
2022-12-28T19:26:43.706Z,17.10
2022-12-28T19:29:12.510Z,16.00
2022-12-28T19:31:41.364Z,14.90
2022-12-28T19:34:09.090Z,13.95
2022-12-28T19:36:36.704Z,14.63
2022-12-28T19:39:04.684Z,15.73
2022-12-28T19:41:32.058Z,14.83
2022-12-28T19:43:59.523Z,16.50
2022-12-28T19:46:33.784Z,17.47
2022-12-28T19:49:03.217Z,16.20
2022-12-28T19:51:32.277Z,16.80
2022-12-28T19:54:01.475Z,14.95
2022-12-28T19:56:29.281Z,12.98
2022-12-28T19:59:03.402Z,13.77
2022-12-28T20:01:35.506Z,18.17
2022-12-28T20:04:08.811Z,14.97
2022-12-28T20:06:40.697Z,14.87
2022-12-28T20:09:08.822Z,18.73
2022-12-28T20:11:36.895Z,18.17
2022-12-28T20:14:05.232Z,16.47
2022-12-28T20:16:34.265Z,17.45
2022-12-28T20:19:02.018Z,15.80
2022-12-28T20:21:29.751Z,14.93
2022-12-28T20:23:57.523Z,16.70
2022-12-28T20:26:27.218Z,17.10
2022-12-28T20:28:58.023Z,15.17
2022-12-28T20:31:26.247Z,16.43
2022-12-28T20:33:54.017Z,16.83
2022-12-28T20:36:24.671Z,16.97
2022-12-28T20:38:54.043Z,17.37
2022-12-28T20:41:42.703Z,18.52
2022-12-28T20:44:13.562Z,16.55
2022-12-28T20:46:43.456Z,18.57
2022-12-28T20:49:11.880Z,18.67
2022-12-28T20:51:39.411Z,17.50
2022-12-28T20:54:06.910Z,17.50
2022-12-28T20:56:38.378Z,18.87
2022-12-28T20:59:05.949Z,18.27
2022-12-28T21:01:33.401Z,18.03
2022-12-28T21:04:01.296Z,20.10
2022-12-28T21:06:28.719Z,19.37
2022-12-28T21:08:56.158Z,19.23
2022-12-28T21:11:24.413Z,20.33
2022-12-28T21:13:52.095Z,19.53
2022-12-28T21:16:19.687Z,18.40
2022-12-28T21:18:49.289Z,20.00
2022-12-28T21:21:19.747Z,21.37
2022-12-28T21:23:47.451Z,20.17
2022-12-28T21:26:17.214Z,20.83
2022-12-28T21:28:45.873Z,19.53
2022-12-28T21:31:14.670Z,20.23
2022-12-28T21:33:42.436Z,21.35
2022-12-28T21:36:17.968Z,20.03
2022-12-28T21:38:47.910Z,21.53
2022-12-28T21:41:38.515Z,19.47
2022-12-28T21:44:08.136Z,21.60
2022-12-28T21:46:35.695Z,22.20
2022-12-28T21:49:06.400Z,21.20
2022-12-28T21:51:38.791Z,20.67
2022-12-28T21:54:10.042Z,21.00
2022-12-28T21:56:38.190Z,20.77
2022-12-28T21:59:06.844Z,20.37
2022-12-28T22:01:52.946Z,19.67
2022-12-28T22:04:41.363Z,19.40
2022-12-28T22:07:11.413Z,21.20
2022-12-28T22:09:58.944Z,20.90
2022-12-28T22:12:39.889Z,20.60
2022-12-28T22:15:28.387Z,19.60
2022-12-28T22:18:01.053Z,20.23
2022-12-28T22:20:29.732Z,20.23
2022-12-28T22:22:59.856Z,18.47
2022-12-28T22:25:29.027Z,18.83
2022-12-28T22:27:57.581Z,18.53
2022-12-28T22:30:25.345Z,18.23
2022-12-28T22:32:52.622Z,18.40
2022-12-28T22:35:20.970Z,19.13
2022-12-28T22:37:48.503Z,19.63
2022-12-28T22:40:16.103Z,18.53
2022-12-28T22:42:45.396Z,19.20
2022-12-28T22:45:18.320Z,20.25
2022-12-28T22:47:46.518Z,19.57
2022-12-28T22:50:16.592Z,20.03
2022-12-28T22:52:43.978Z,17.97
2022-12-28T22:55:11.603Z,17.60
2022-12-28T22:57:38.943Z,20.87
2022-12-28T23:00:11.156Z,17.37
2022-12-28T23:02:38.931Z,18.90
2022-12-28T23:05:06.631Z,18.50
2022-12-28T23:07:36.474Z,17.03
2022-12-28T23:10:06.468Z,18.37
2022-12-28T23:12:37.359Z,18.03
2022-12-28T23:15:19.188Z,18.67
2022-12-28T23:17:48.610Z,17.27
2022-12-28T23:23:20.611Z,16.70
2022-12-28T23:26:06.690Z,17.67
2022-12-28T23:28:36.150Z,17.50
2022-12-28T23:31:04.120Z,17.63
2022-12-28T23:33:31.608Z,16.93
2022-12-28T23:36:02.556Z,17.37
2022-12-28T23:38:32.040Z,18.33
2022-12-28T23:41:17.895Z,17.95
2022-12-28T23:43:45.604Z,16.03
2022-12-28T23:46:12.935Z,17.37
2022-12-28T23:48:40.508Z,17.60
2022-12-28T23:51:08.649Z,17.80
2022-12-28T23:53:36.502Z,16.33
2022-12-28T23:56:03.826Z,18.33
2022-12-28T23:58:31.550Z,16.90
